Terminal Aerodrome Forecast
Issued by NWS

Home | Current Version | Previous Version | Text Only | Print | Product List | Glossary On
Versions: 1 2 3 4 5 6 7 8 9 10 11 12 13 14 15 16 17 18 19 20 21 22 23 24 25 26
000
FTUS44 KEWX 272320
TAFSSF
TAF
KSSF 272320Z 2800/2824 14012KT P6SM SCT040
     FM280600 14008KT P6SM OVC015
     FM280800 14008KT 5SM BR OVC008
     FM281500 14012KT P6SM OVC025
     FM281900 14015KT P6SM BKN040=

USA.gov is the U.S. government's official web portal to all federal, state and local government web resources and services.